sensor_id;sensor_type;location;lat;lon;timestamp;P1;durP1;ratioP1;P2;durP2;ratioP2
54561;SDS011;69047;53.358;-1.486;2023-04-05T00:01:02;5.60;;;2.90;;
54561;SDS011;69047;53.358;-1.486;2023-04-05T00:03:32;5.88;;;3.13;;
54561;SDS011;69047;53.358;-1.486;2023-04-05T00:05:57;7.25;;;3.53;;
54561;SDS011;69047;53.358;-1.486;2023-04-05T00:08:23;5.45;;;3.10;;
54561;SDS011;69047;53.358;-1.486;2023-04-05T00:10:50;6.28;;;2.80;;
54561;SDS011;69047;53.358;-1.486;2023-04-05T00:13:16;6.97;;;3.70;;
54561;SDS011;69047;53.358;-1.486;2023-04-05T00:15:42;8.30;;;2.92;;
54561;SDS011;69047;53.358;-1.486;2023-04-05T00:18:07;5.45;;;2.80;;
54561;SDS011;69047;53.358;-1.486;2023-04-05T00:20:46;4.95;;;3.13;;
54561;SDS011;69047;53.358;-1.486;2023-04-05T00:23:13;4.90;;;2.80;;
54561;SDS011;69047;53.358;-1.486;2023-04-05T00:25:40;4.93;;;3.08;;
54561;SDS011;69047;53.358;-1.486;2023-04-05T00:28:06;4.78;;;2.85;;
54561;SDS011;69047;53.358;-1.486;2023-04-05T00:30:31;5.80;;;3.08;;
54561;SDS011;69047;53.358;-1.486;2023-04-05T00:32:57;4.97;;;2.78;;
54561;SDS011;69047;53.358;-1.486;2023-04-05T00:35:25;4.60;;;3.17;;
54561;SDS011;69047;53.358;-1.486;2023-04-05T00:37:51;4.75;;;2.97;;
54561;SDS011;69047;53.358;-1.486;2023-04-05T00:40:16;6.47;;;3.00;;
54561;SDS011;69047;53.358;-1.486;2023-04-05T00:42:42;3.92;;;2.53;;
54561;SDS011;69047;53.358;-1.486;2023-04-05T00:45:07;4.38;;;2.95;;
54561;SDS011;69047;53.358;-1.486;2023-04-05T00:47:33;4.57;;;2.83;;
54561;SDS011;69047;53.358;-1.486;2023-04-05T00:49:59;7.07;;;2.88;;
54561;SDS011;69047;53.358;-1.486;2023-04-05T00:52:25;5.93;;;3.40;;
54561;SDS011;69047;53.358;-1.486;2023-04-05T00:54:52;4.05;;;2.70;;
54561;SDS011;69047;53.358;-1.486;2023-04-05T00:57:21;3.95;;;2.42;;
54561;SDS011;69047;53.358;-1.486;2023-04-05T00:59:49;4.85;;;2.67;;
54561;SDS011;69047;53.358;-1.486;2023-04-05T01:02:34;6.47;;;3.17;;
54561;SDS011;69047;53.358;-1.486;2023-04-05T01:05:07;3.97;;;2.55;;
54561;SDS011;69047;53.358;-1.486;2023-04-05T01:10:10;5.32;;;2.75;;
54561;SDS011;69047;53.358;-1.486;2023-04-05T01:12:38;5.90;;;2.58;;
54561;SDS011;69047;53.358;-1.486;2023-04-05T01:15:04;4.68;;;2.60;;
54561;SDS011;69047;53.358;-1.486;2023-04-05T01:17:31;4.38;;;2.47;;
54561;SDS011;69047;53.358;-1.486;2023-04-05T01:20:01;3.72;;;2.67;;
54561;SDS011;69047;53.358;-1.486;2023-04-05T01:28:43;5.70;;;2.75;;
54561;SDS011;69047;53.358;-1.486;2023-04-05T01:34:17;3.88;;;2.55;;
54561;SDS011;69047;53.358;-1.486;2023-04-05T01:36:59;4.47;;;2.20;;
54561;SDS011;69047;53.358;-1.486;2023-04-05T01:39:26;3.13;;;2.47;;
54561;SDS011;69047;53.358;-1.486;2023-04-05T01:41:56;3.38;;;2.40;;
54561;SDS011;69047;53.358;-1.486;2023-04-05T01:44:25;6.78;;;2.42;;
54561;SDS011;69047;53.358;-1.486;2023-04-05T01:46:51;4.35;;;2.55;;
54561;SDS011;69047;53.358;-1.486;2023-04-05T01:49:16;3.35;;;2.25;;
54561;SDS011;69047;53.358;-1.486;2023-04-05T01:51:41;4.35;;;2.58;;
54561;SDS011;69047;53.358;-1.486;2023-04-05T01:54:07;6.00;;;2.50;;
54561;SDS011;69047;53.358;-1.486;2023-04-05T01:56:33;3.80;;;2.55;;
54561;SDS011;69047;53.358;-1.486;2023-04-05T01:58:58;3.83;;;2.33;;
54561;SDS011;69047;53.358;-1.486;2023-04-05T02:01:24;4.30;;;2.50;;
54561;SDS011;69047;53.358;-1.486;2023-04-05T02:03:49;3.45;;;2.22;;
54561;SDS011;69047;53.358;-1.486;2023-04-05T02:06:15;3.53;;;1.85;;
54561;SDS011;69047;53.358;-1.486;2023-04-05T02:08:40;2.97;;;2.40;;
54561;SDS011;69047;53.358;-1.486;2023-04-05T02:11:05;4.22;;;2.25;;
54561;SDS011;69047;53.358;-1.486;2023-04-05T02:13:31;5.65;;;2.60;;
54561;SDS011;69047;53.358;-1.486;2023-04-05T02:15:56;3.45;;;2.13;;
54561;SDS011;69047;53.358;-1.486;2023-04-05T02:18:21;4.35;;;2.53;;
54561;SDS011;69047;53.358;-1.486;2023-04-05T02:20:59;6.68;;;2.58;;
54561;SDS011;69047;53.358;-1.486;2023-04-05T02:23:29;4.50;;;2.17;;
54561;SDS011;69047;53.358;-1.486;2023-04-05T02:25:55;4.63;;;2.40;;
54561;SDS011;69047;53.358;-1.486;2023-04-05T02:28:21;3.15;;;1.98;;
54561;SDS011;69047;53.358;-1.486;2023-04-05T02:30:46;4.13;;;2.40;;
54561;SDS011;69047;53.358;-1.486;2023-04-05T02:33:11;4.10;;;2.65;;
54561;SDS011;69047;53.358;-1.486;2023-04-05T02:35:37;3.40;;;2.10;;
54561;SDS011;69047;53.358;-1.486;2023-04-05T02:38:03;4.60;;;2.35;;
54561;SDS011;69047;53.358;-1.486;2023-04-05T02:40:29;5.07;;;2.20;;
54561;SDS011;69047;53.358;-1.486;2023-04-05T02:42:55;3.85;;;2.13;;
54561;SDS011;69047;53.358;-1.486;2023-04-05T02:45:21;5.32;;;2.10;;
54561;SDS011;69047;53.358;-1.486;2023-04-05T02:47:46;5.07;;;2.70;;
54561;SDS011;69047;53.358;-1.486;2023-04-05T02:50:12;4.65;;;1.85;;
54561;SDS011;69047;53.358;-1.486;2023-04-05T02:52:37;4.47;;;2.28;;
54561;SDS011;69047;53.358;-1.486;2023-04-05T02:55:06;3.10;;;1.90;;
54561;SDS011;69047;53.358;-1.486;2023-04-05T02:57:31;3.60;;;2.45;;
54561;SDS011;69047;53.358;-1.486;2023-04-05T02:59:56;4.43;;;2.38;;
54561;SDS011;69047;53.358;-1.486;2023-04-05T03:02:22;3.05;;;1.85;;
54561;SDS011;69047;53.358;-1.486;2023-04-05T03:04:47;3.97;;;2.38;;
54561;SDS011;69047;53.358;-1.486;2023-04-05T03:07:13;4.88;;;2.38;;
54561;SDS011;69047;53.358;-1.486;2023-04-05T03:09:43;3.53;;;2.20;;
54561;SDS011;69047;53.358;-1.486;2023-04-05T03:12:10;4.25;;;2.35;;
54561;SDS011;69047;53.358;-1.486;2023-04-05T03:14:36;3.08;;;2.30;;
54561;SDS011;69047;53.358;-1.486;2023-04-05T03:17:02;3.20;;;2.30;;
54561;SDS011;69047;53.358;-1.486;2023-04-05T03:19:27;3.63;;;2.13;;
54561;SDS011;69047;53.358;-1.486;2023-04-05T03:21:53;4.35;;;2.25;;
54561;SDS011;69047;53.358;-1.486;2023-04-05T03:24:18;2.88;;;2.10;;
54561;SDS011;69047;53.358;-1.486;2023-04-05T03:26:47;5.22;;;2.75;;
54561;SDS011;69047;53.358;-1.486;2023-04-05T03:29:13;3.08;;;1.90;;
54561;SDS011;69047;53.358;-1.486;2023-04-05T03:31:38;3.30;;;2.05;;
54561;SDS011;69047;53.358;-1.486;2023-04-05T03:34:04;5.05;;;2.30;;
54561;SDS011;69047;53.358;-1.486;2023-04-05T03:36:29;5.88;;;2.55;;
54561;SDS011;69047;53.358;-1.486;2023-04-05T03:39:05;3.22;;;1.90;;
54561;SDS011;69047;53.358;-1.486;2023-04-05T03:41:31;4.28;;;2.08;;
54561;SDS011;69047;53.358;-1.486;2023-04-05T03:43:56;4.40;;;2.28;;
54561;SDS011;69047;53.358;-1.486;2023-04-05T03:46:21;4.95;;;2.08;;
54561;SDS011;69047;53.358;-1.486;2023-04-05T03:48:47;2.97;;;1.95;;
54561;SDS011;69047;53.358;-1.486;2023-04-05T03:51:12;3.67;;;2.15;;
54561;SDS011;69047;53.358;-1.486;2023-04-05T03:53:38;5.00;;;2.10;;
54561;SDS011;69047;53.358;-1.486;2023-04-05T03:56:03;3.78;;;1.85;;
54561;SDS011;69047;53.358;-1.486;2023-04-05T03:58:28;3.92;;;2.40;;
54561;SDS011;69047;53.358;-1.486;2023-04-05T04:00:54;3.47;;;2.22;;
54561;SDS011;69047;53.358;-1.486;2023-04-05T04:03:20;3.45;;;2.20;;
54561;SDS011;69047;53.358;-1.486;2023-04-05T04:05:46;4.28;;;2.03;;
54561;SDS011;69047;53.358;-1.486;2023-04-05T04:08:11;2.97;;;1.95;;
54561;SDS011;69047;53.358;-1.486;2023-04-05T04:10:37;3.67;;;2.22;;
54561;SDS011;69047;53.358;-1.486;2023-04-05T04:13:02;3.15;;;1.73;;
54561;SDS011;69047;53.358;-1.486;2023-04-05T04:15:28;3.88;;;2.05;;
54561;SDS011;69047;53.358;-1.486;2023-04-05T04:17:53;3.00;;;2.00;;
54561;SDS011;69047;53.358;-1.486;2023-04-05T04:20:19;4.72;;;2.40;;
54561;SDS011;69047;53.358;-1.486;2023-04-05T04:22:44;4.50;;;2.08;;
54561;SDS011;69047;53.358;-1.486;2023-04-05T04:25:10;5.72;;;2.30;;
54561;SDS011;69047;53.358;-1.486;2023-04-05T04:27:39;4.47;;;1.90;;
54561;SDS011;69047;53.358;-1.486;2023-04-05T04:30:10;2.97;;;1.77;;
54561;SDS011;69047;53.358;-1.486;2023-04-05T04:32:37;3.92;;;2.10;;
54561;SDS011;69047;53.358;-1.486;2023-04-05T04:35:27;4.95;;;2.20;;
54561;SDS011;69047;53.358;-1.486;2023-04-05T04:38:00;4.93;;;2.17;;
54561;SDS011;69047;53.358;-1.486;2023-04-05T04:40:30;4.07;;;2.20;;
54561;SDS011;69047;53.358;-1.486;2023-04-05T04:43:02;6.32;;;2.50;;
54561;SDS011;69047;53.358;-1.486;2023-04-05T04:45:33;6.68;;;2.25;;
54561;SDS011;69047;53.358;-1.486;2023-04-05T04:48:01;3.80;;;2.35;;
54561;SDS011;69047;53.358;-1.486;2023-04-05T04:50:29;3.20;;;1.77;;
54561;SDS011;69047;53.358;-1.486;2023-04-05T04:52:55;4.13;;;2.20;;
54561;SDS011;69047;53.358;-1.486;2023-04-05T04:55:21;5.13;;;2.05;;
54561;SDS011;69047;53.358;-1.486;2023-04-05T04:57:50;3.35;;;1.77;;
54561;SDS011;69047;53.358;-1.486;2023-04-05T05:00:16;4.05;;;2.10;;
54561;SDS011;69047;53.358;-1.486;2023-04-05T05:02:43;6.70;;;2.45;;
54561;SDS011;69047;53.358;-1.486;2023-04-05T05:05:08;4.07;;;1.90;;
54561;SDS011;69047;53.358;-1.486;2023-04-05T05:07:35;4.30;;;2.08;;
54561;SDS011;69047;53.358;-1.486;2023-04-05T05:10:01;5.47;;;2.17;;
54561;SDS011;69047;53.358;-1.486;2023-04-05T05:12:28;8.60;;;2.58;;
54561;SDS011;69047;53.358;-1.486;2023-04-05T05:14:55;3.60;;;1.90;;
54561;SDS011;69047;53.358;-1.486;2023-04-05T05:17:20;4.75;;;2.00;;
54561;SDS011;69047;53.358;-1.486;2023-04-05T05:19:47;3.67;;;1.63;;
54561;SDS011;69047;53.358;-1.486;2023-04-05T05:22:12;2.83;;;2.13;;
54561;SDS011;69047;53.358;-1.486;2023-04-05T05:24:38;2.97;;;1.92;;
54561;SDS011;69047;53.358;-1.486;2023-04-05T05:27:03;3.20;;;1.63;;
54561;SDS011;69047;53.358;-1.486;2023-04-05T05:29:29;2.65;;;1.58;;
54561;SDS011;69047;53.358;-1.486;2023-04-05T05:31:54;3.35;;;1.95;;
54561;SDS011;69047;53.358;-1.486;2023-04-05T05:34:20;4.22;;;1.63;;
54561;SDS011;69047;53.358;-1.486;2023-04-05T05:36:45;3.75;;;1.55;;
54561;SDS011;69047;53.358;-1.486;2023-04-05T05:39:11;3.15;;;1.75;;
54561;SDS011;69047;53.358;-1.486;2023-04-05T05:41:36;4.18;;;1.40;;
54561;SDS011;69047;53.358;-1.486;2023-04-05T05:44:02;3.15;;;1.80;;
54561;SDS011;69047;53.358;-1.486;2023-04-05T05:46:27;12.70;;;3.65;;
54561;SDS011;69047;53.358;-1.486;2023-04-05T05:48:53;28.00;;;9.07;;
54561;SDS011;69047;53.358;-1.486;2023-04-05T05:51:18;29.98;;;11.45;;
54561;SDS011;69047;53.358;-1.486;2023-04-05T05:53:43;23.85;;;7.85;;
54561;SDS011;69047;53.358;-1.486;2023-04-05T05:56:09;19.48;;;8.38;;
54561;SDS011;69047;53.358;-1.486;2023-04-05T05:58:35;21.85;;;6.72;;
54561;SDS011;69047;53.358;-1.486;2023-04-05T06:01:01;13.93;;;6.10;;
54561;SDS011;69047;53.358;-1.486;2023-04-05T06:03:27;14.73;;;5.28;;
54561;SDS011;69047;53.358;-1.486;2023-04-05T06:05:54;12.35;;;4.65;;
54561;SDS011;69047;53.358;-1.486;2023-04-05T06:08:21;13.30;;;4.72;;
54561;SDS011;69047;53.358;-1.486;2023-04-05T06:10:51;8.38;;;4.35;;
54561;SDS011;69047;53.358;-1.486;2023-04-05T06:13:16;12.32;;;4.20;;
54561;SDS011;69047;53.358;-1.486;2023-04-05T06:15:42;10.68;;;4.18;;
54561;SDS011;69047;53.358;-1.486;2023-04-05T06:18:07;12.85;;;4.38;;
54561;SDS011;69047;53.358;-1.486;2023-04-05T06:20:33;7.75;;;3.53;;
54561;SDS011;69047;53.358;-1.486;2023-04-05T06:22:59;8.80;;;3.65;;
54561;SDS011;69047;53.358;-1.486;2023-04-05T06:25:25;9.95;;;3.92;;
54561;SDS011;69047;53.358;-1.486;2023-04-05T06:27:50;7.72;;;3.88;;
54561;SDS011;69047;53.358;-1.486;2023-04-05T06:30:16;9.40;;;3.35;;
54561;SDS011;69047;53.358;-1.486;2023-04-05T06:32:41;6.82;;;3.40;;
54561;SDS011;69047;53.358;-1.486;2023-04-05T06:35:07;7.93;;;2.95;;
54561;SDS011;69047;53.358;-1.486;2023-04-05T06:37:32;6.25;;;3.13;;
54561;SDS011;69047;53.358;-1.486;2023-04-05T06:39:57;8.75;;;3.10;;
54561;SDS011;69047;53.358;-1.486;2023-04-05T06:42:23;6.75;;;3.20;;
54561;SDS011;69047;53.358;-1.486;2023-04-05T06:44:48;4.50;;;2.47;;
54561;SDS011;69047;53.358;-1.486;2023-04-05T06:47:14;6.45;;;3.33;;
54561;SDS011;69047;53.358;-1.486;2023-04-05T06:49:43;9.15;;;3.45;;
54561;SDS011;69047;53.358;-1.486;2023-04-05T06:52:09;8.85;;;3.80;;
54561;SDS011;69047;53.358;-1.486;2023-04-05T06:54:37;12.77;;;3.25;;
54561;SDS011;69047;53.358;-1.486;2023-04-05T06:57:03;9.98;;;3.50;;
54561;SDS011;69047;53.358;-1.486;2023-04-05T06:59:29;11.75;;;3.22;;
54561;SDS011;69047;53.358;-1.486;2023-04-05T07:01:55;7.38;;;2.90;;
54561;SDS011;69047;53.358;-1.486;2023-04-05T07:04:20;9.45;;;3.30;;
54561;SDS011;69047;53.358;-1.486;2023-04-05T07:06:46;7.50;;;2.63;;
54561;SDS011;69047;53.358;-1.486;2023-04-05T07:09:11;6.00;;;2.90;;
54561;SDS011;69047;53.358;-1.486;2023-04-05T07:11:37;7.47;;;2.85;;
54561;SDS011;69047;53.358;-1.486;2023-04-05T07:14:04;11.10;;;2.80;;
54561;SDS011;69047;53.358;-1.486;2023-04-05T07:16:30;5.80;;;2.28;;
54561;SDS011;69047;53.358;-1.486;2023-04-05T07:18:55;7.63;;;2.72;;
54561;SDS011;69047;53.358;-1.486;2023-04-05T07:21:22;7.72;;;2.55;;
54561;SDS011;69047;53.358;-1.486;2023-04-05T07:23:51;4.68;;;2.03;;
54561;SDS011;69047;53.358;-1.486;2023-04-05T07:26:19;8.05;;;2.30;;
54561;SDS011;69047;53.358;-1.486;2023-04-05T07:28:46;4.80;;;2.30;;
54561;SDS011;69047;53.358;-1.486;2023-04-05T07:31:13;8.30;;;2.60;;
54561;SDS011;69047;53.358;-1.486;2023-04-05T07:33:38;8.70;;;2.45;;
54561;SDS011;69047;53.358;-1.486;2023-04-05T07:36:04;7.53;;;2.90;;
54561;SDS011;69047;53.358;-1.486;2023-04-05T07:38:30;6.90;;;2.10;;
54561;SDS011;69047;53.358;-1.486;2023-04-05T07:40:55;6.28;;;2.20;;
54561;SDS011;69047;53.358;-1.486;2023-04-05T07:43:20;3.15;;;1.58;;
54561;SDS011;69047;53.358;-1.486;2023-04-05T07:45:46;4.25;;;2.15;;
54561;SDS011;69047;53.358;-1.486;2023-04-05T07:48:11;5.10;;;1.83;;
54561;SDS011;69047;53.358;-1.486;2023-04-05T07:50:37;6.00;;;2.10;;
54561;SDS011;69047;53.358;-1.486;2023-04-05T07:53:04;7.20;;;2.65;;
54561;SDS011;69047;53.358;-1.486;2023-04-05T07:55:30;7.00;;;2.10;;
54561;SDS011;69047;53.358;-1.486;2023-04-05T07:57:56;4.40;;;2.10;;
54561;SDS011;69047;53.358;-1.486;2023-04-05T08:00:22;6.53;;;1.67;;
54561;SDS011;69047;53.358;-1.486;2023-04-05T08:02:47;6.13;;;2.17;;
54561;SDS011;69047;53.358;-1.486;2023-04-05T08:05:14;5.35;;;1.92;;
54561;SDS011;69047;53.358;-1.486;2023-04-05T08:07:41;5.10;;;2.10;;
54561;SDS011;69047;53.358;-1.486;2023-04-05T08:10:06;3.15;;;1.60;;
54561;SDS011;69047;53.358;-1.486;2023-04-05T08:12:32;2.72;;;1.90;;
54561;SDS011;69047;53.358;-1.486;2023-04-05T08:14:58;8.02;;;2.00;;
54561;SDS011;69047;53.358;-1.486;2023-04-05T08:17:24;6.10;;;2.22;;
54561;SDS011;69047;53.358;-1.486;2023-04-05T08:19:52;2.95;;;2.15;;
54561;SDS011;69047;53.358;-1.486;2023-04-05T08:22:18;3.50;;;1.85;;
54561;SDS011;69047;53.358;-1.486;2023-04-05T08:24:44;5.45;;;2.40;;
54561;SDS011;69047;53.358;-1.486;2023-04-05T08:27:10;215.20;;;118.80;;
54561;SDS011;69047;53.358;-1.486;2023-04-05T08:29:35;463.17;;;291.45;;
54561;SDS011;69047;53.358;-1.486;2023-04-05T08:32:01;242.48;;;141.75;;
54561;SDS011;69047;53.358;-1.486;2023-04-05T08:34:27;208.98;;;121.82;;
54561;SDS011;69047;53.358;-1.486;2023-04-05T08:36:56;197.98;;;116.25;;
54561;SDS011;69047;53.358;-1.486;2023-04-05T08:39:22;180.35;;;104.80;;
54561;SDS011;69047;53.358;-1.486;2023-04-05T08:41:51;163.38;;;98.10;;
54561;SDS011;69047;53.358;-1.486;2023-04-05T08:44:38;149.23;;;83.95;;
54561;SDS011;69047;53.358;-1.486;2023-04-05T08:47:04;139.57;;;78.00;;
54561;SDS011;69047;53.358;-1.486;2023-04-05T08:49:29;119.65;;;68.97;;
54561;SDS011;69047;53.358;-1.486;2023-04-05T08:51:55;111.78;;;63.72;;
54561;SDS011;69047;53.358;-1.486;2023-04-05T08:54:22;105.90;;;59.53;;
54561;SDS011;69047;53.358;-1.486;2023-04-05T08:56:47;93.32;;;56.88;;
54561;SDS011;69047;53.358;-1.486;2023-04-05T08:59:14;88.20;;;52.90;;
54561;SDS011;69047;53.358;-1.486;2023-04-05T09:01:41;83.15;;;49.70;;
54561;SDS011;69047;53.358;-1.486;2023-04-05T09:04:30;77.57;;;45.53;;
54561;SDS011;69047;53.358;-1.486;2023-04-05T09:06:56;69.78;;;39.83;;
54561;SDS011;69047;53.358;-1.486;2023-04-05T09:09:23;68.60;;;40.55;;
54561;SDS011;69047;53.358;-1.486;2023-04-05T09:11:48;59.72;;;34.75;;
54561;SDS011;69047;53.358;-1.486;2023-04-05T09:14:14;60.72;;;34.83;;
54561;SDS011;69047;53.358;-1.486;2023-04-05T09:16:40;53.33;;;31.90;;
54561;SDS011;69047;53.358;-1.486;2023-04-05T09:19:06;54.20;;;30.35;;
54561;SDS011;69047;53.358;-1.486;2023-04-05T09:29:37;39.20;;;21.48;;
54561;SDS011;69047;53.358;-1.486;2023-04-05T09:32:03;37.80;;;21.75;;
54561;SDS011;69047;53.358;-1.486;2023-04-05T09:34:30;40.28;;;20.92;;
54561;SDS011;69047;53.358;-1.486;2023-04-05T09:36:57;39.50;;;20.25;;
54561;SDS011;69047;53.358;-1.486;2023-04-05T09:39:27;33.78;;;19.45;;
54561;SDS011;69047;53.358;-1.486;2023-04-05T09:42:14;32.13;;;17.20;;
54561;SDS011;69047;53.358;-1.486;2023-04-05T09:44:50;31.23;;;17.30;;
54561;SDS011;69047;53.358;-1.486;2023-04-05T09:47:16;29.48;;;16.75;;
54561;SDS011;69047;53.358;-1.486;2023-04-05T09:49:43;26.90;;;15.60;;
54561;SDS011;69047;53.358;-1.486;2023-04-05T09:52:22;29.60;;;15.60;;
54561;SDS011;69047;53.358;-1.486;2023-04-05T09:57:22;22.40;;;12.95;;
54561;SDS011;69047;53.358;-1.486;2023-04-05T09:59:48;21.77;;;12.38;;
54561;SDS011;69047;53.358;-1.486;2023-04-05T10:02:14;22.00;;;12.15;;
54561;SDS011;69047;53.358;-1.486;2023-04-05T10:04:40;18.85;;;11.45;;
54561;SDS011;69047;53.358;-1.486;2023-04-05T10:07:08;19.75;;;11.13;;
54561;SDS011;69047;53.358;-1.486;2023-04-05T10:09:35;15.25;;;9.50;;
54561;SDS011;69047;53.358;-1.486;2023-04-05T10:12:00;17.50;;;8.65;;
54561;SDS011;69047;53.358;-1.486;2023-04-05T10:14:26;14.73;;;8.70;;
54561;SDS011;69047;53.358;-1.486;2023-04-05T10:17:03;16.33;;;8.32;;
54561;SDS011;69047;53.358;-1.486;2023-04-05T10:22:28;11.55;;;7.75;;
54561;SDS011;69047;53.358;-1.486;2023-04-05T10:25:04;13.27;;;7.50;;
54561;SDS011;69047;53.358;-1.486;2023-04-05T10:27:41;11.43;;;6.97;;
54561;SDS011;69047;53.358;-1.486;2023-04-05T10:30:11;11.70;;;6.70;;
54561;SDS011;69047;53.358;-1.486;2023-04-05T10:32:43;11.55;;;6.50;;
54561;SDS011;69047;53.358;-1.486;2023-04-05T10:35:23;10.73;;;6.60;;
54561;SDS011;69047;53.358;-1.486;2023-04-05T10:40:39;11.00;;;5.38;;
54561;SDS011;69047;53.358;-1.486;2023-04-05T10:43:08;10.90;;;5.63;;
54561;SDS011;69047;53.358;-1.486;2023-04-05T10:45:41;13.90;;;5.82;;
54561;SDS011;69047;53.358;-1.486;2023-04-05T10:48:53;10.88;;;5.35;;
54561;SDS011;69047;53.358;-1.486;2023-04-05T10:50:59;9.60;;;5.05;;
54561;SDS011;69047;53.358;-1.486;2023-04-05T10:53:25;8.70;;;4.75;;
54561;SDS011;69047;53.358;-1.486;2023-04-05T10:55:51;9.32;;;4.20;;
54561;SDS011;69047;53.358;-1.486;2023-04-05T10:58:17;10.48;;;5.20;;
54561;SDS011;69047;53.358;-1.486;2023-04-05T11:00:44;8.82;;;4.95;;
54561;SDS011;69047;53.358;-1.486;2023-04-05T11:03:10;7.20;;;4.43;;
54561;SDS011;69047;53.358;-1.486;2023-04-05T11:06:16;9.35;;;4.15;;
54561;SDS011;69047;53.358;-1.486;2023-04-05T11:08:41;7.32;;;3.70;;
54561;SDS011;69047;53.358;-1.486;2023-04-05T11:11:07;8.20;;;3.95;;
54561;SDS011;69047;53.358;-1.486;2023-04-05T11:13:53;10.40;;;3.42;;
54561;SDS011;69047;53.358;-1.486;2023-04-05T11:16:20;7.03;;;4.05;;
54561;SDS011;69047;53.358;-1.486;2023-04-05T11:18:47;6.88;;;3.40;;
54561;SDS011;69047;53.358;-1.486;2023-04-05T11:21:21;7.68;;;3.25;;
54561;SDS011;69047;53.358;-1.486;2023-04-05T11:23:58;8.00;;;3.03;;
54561;SDS011;69047;53.358;-1.486;2023-04-05T11:29:08;4.15;;;3.13;;
54561;SDS011;69047;53.358;-1.486;2023-04-05T11:31:35;5.55;;;3.22;;
54561;SDS011;69047;53.358;-1.486;2023-04-05T11:34:06;7.43;;;3.92;;
54561;SDS011;69047;53.358;-1.486;2023-04-05T11:41:47;6.05;;;3.17;;
54561;SDS011;69047;53.358;-1.486;2023-04-05T11:44:18;7.43;;;3.33;;
54561;SDS011;69047;53.358;-1.486;2023-04-05T11:46:50;7.13;;;3.28;;
54561;SDS011;69047;53.358;-1.486;2023-04-05T11:49:26;6.32;;;2.90;;
54561;SDS011;69047;53.358;-1.486;2023-04-05T11:51:52;9.02;;;3.88;;
54561;SDS011;69047;53.358;-1.486;2023-04-05T11:54:30;6.15;;;2.95;;
54561;SDS011;69047;53.358;-1.486;2023-04-05T11:56:56;6.70;;;3.45;;
54561;SDS011;69047;53.358;-1.486;2023-04-05T11:59:32;7.10;;;2.80;;
54561;SDS011;69047;53.358;-1.486;2023-04-05T12:01:59;8.70;;;2.75;;
54561;SDS011;69047;53.358;-1.486;2023-04-05T12:04:26;8.25;;;2.60;;
54561;SDS011;69047;53.358;-1.486;2023-04-05T12:07:11;7.90;;;2.55;;
54561;SDS011;69047;53.358;-1.486;2023-04-05T12:12:39;3.53;;;2.20;;
54561;SDS011;69047;53.358;-1.486;2023-04-05T12:15:06;5.30;;;3.10;;
54561;SDS011;69047;53.358;-1.486;2023-04-05T12:17:50;20.95;;;12.52;;
54561;SDS011;69047;53.358;-1.486;2023-04-05T12:20:19;11.82;;;7.32;;
54561;SDS011;69047;53.358;-1.486;2023-04-05T12:22:47;11.35;;;8.20;;
54561;SDS011;69047;53.358;-1.486;2023-04-05T12:25:13;26.60;;;14.40;;
54561;SDS011;69047;53.358;-1.486;2023-04-05T12:27:40;94.93;;;25.42;;
54561;SDS011;69047;53.358;-1.486;2023-04-05T12:32:35;331.92;;;187.25;;
54561;SDS011;69047;53.358;-1.486;2023-04-05T12:35:11;739.72;;;455.52;;
54561;SDS011;69047;53.358;-1.486;2023-04-05T12:37:38;536.72;;;303.08;;
54561;SDS011;69047;53.358;-1.486;2023-04-05T12:40:06;484.75;;;284.67;;
54561;SDS011;69047;53.358;-1.486;2023-04-05T12:42:33;429.38;;;227.45;;
54561;SDS011;69047;53.358;-1.486;2023-04-05T12:45:02;381.77;;;207.68;;
54561;SDS011;69047;53.358;-1.486;2023-04-05T12:47:49;386.35;;;213.90;;
54561;SDS011;69047;53.358;-1.486;2023-04-05T12:50:28;369.65;;;204.07;;
54561;SDS011;69047;53.358;-1.486;2023-04-05T12:52:59;348.45;;;191.15;;
54561;SDS011;69047;53.358;-1.486;2023-04-05T12:55:26;327.15;;;177.43;;
54561;SDS011;69047;53.358;-1.486;2023-04-05T12:57:52;305.02;;;167.07;;
54561;SDS011;69047;53.358;-1.486;2023-04-05T13:00:19;305.67;;;157.82;;
54561;SDS011;69047;53.358;-1.486;2023-04-05T13:02:48;288.23;;;149.85;;
54561;SDS011;69047;53.358;-1.486;2023-04-05T13:05:16;268.38;;;145.32;;
54561;SDS011;69047;53.358;-1.486;2023-04-05T13:07:42;270.40;;;138.25;;
54561;SDS011;69047;53.358;-1.486;2023-04-05T13:10:08;252.88;;;132.63;;
54561;SDS011;69047;53.358;-1.486;2023-04-05T13:12:33;225.90;;;126.00;;
54561;SDS011;69047;53.358;-1.486;2023-04-05T13:14:59;215.75;;;122.47;;
54561;SDS011;69047;53.358;-1.486;2023-04-05T13:17:26;216.32;;;115.68;;
54561;SDS011;69047;53.358;-1.486;2023-04-05T13:19:51;194.05;;;110.45;;
54561;SDS011;69047;53.358;-1.486;2023-04-05T13:22:16;200.80;;;104.63;;
54561;SDS011;69047;53.358;-1.486;2023-04-05T13:24:42;191.07;;;102.50;;
54561;SDS011;69047;53.358;-1.486;2023-04-05T13:27:07;157.50;;;87.97;;
54561;SDS011;69047;53.358;-1.486;2023-04-05T13:29:32;171.98;;;89.97;;
54561;SDS011;69047;53.358;-1.486;2023-04-05T13:31:58;154.27;;;84.05;;
54561;SDS011;69047;53.358;-1.486;2023-04-05T13:34:23;146.93;;;80.88;;
54561;SDS011;69047;53.358;-1.486;2023-04-05T13:36:48;137.88;;;73.25;;
54561;SDS011;69047;53.358;-1.486;2023-04-05T13:39:14;129.80;;;73.00;;
54561;SDS011;69047;53.358;-1.486;2023-04-05T13:41:39;122.82;;;67.93;;
54561;SDS011;69047;53.358;-1.486;2023-04-05T13:44:05;119.18;;;65.93;;
54561;SDS011;69047;53.358;-1.486;2023-04-05T13:46:30;107.28;;;62.45;;
54561;SDS011;69047;53.358;-1.486;2023-04-05T13:48:56;112.55;;;62.67;;
54561;SDS011;69047;53.358;-1.486;2023-04-05T13:51:21;99.50;;;56.10;;
54561;SDS011;69047;53.358;-1.486;2023-04-05T13:53:46;102.13;;;56.38;;
54561;SDS011;69047;53.358;-1.486;2023-04-05T13:56:12;96.28;;;52.03;;
54561;SDS011;69047;53.358;-1.486;2023-04-05T13:58:37;94.95;;;50.78;;
54561;SDS011;69047;53.358;-1.486;2023-04-05T14:01:03;82.60;;;46.25;;
54561;SDS011;69047;53.358;-1.486;2023-04-05T14:03:28;85.72;;;46.60;;
54561;SDS011;69047;53.358;-1.486;2023-04-05T14:05:53;79.65;;;42.17;;
54561;SDS011;69047;53.358;-1.486;2023-04-05T14:08:19;69.28;;;41.17;;
54561;SDS011;69047;53.358;-1.486;2023-04-05T14:10:47;76.68;;;43.03;;
54561;SDS011;69047;53.358;-1.486;2023-04-05T14:13:12;66.65;;;38.88;;
54561;SDS011;69047;53.358;-1.486;2023-04-05T14:15:40;75.68;;;40.83;;
54561;SDS011;69047;53.358;-1.486;2023-04-05T14:18:06;65.57;;;38.58;;
54561;SDS011;69047;53.358;-1.486;2023-04-05T14:20:32;62.20;;;38.13;;
54561;SDS011;69047;53.358;-1.486;2023-04-05T14:22:57;63.60;;;35.47;;
54561;SDS011;69047;53.358;-1.486;2023-04-05T14:25:23;58.40;;;33.72;;
54561;SDS011;69047;53.358;-1.486;2023-04-05T14:27:48;57.90;;;32.13;;
54561;SDS011;69047;53.358;-1.486;2023-04-05T14:30:13;51.38;;;30.45;;
54561;SDS011;69047;53.358;-1.486;2023-04-05T14:32:39;50.35;;;27.77;;
54561;SDS011;69047;53.358;-1.486;2023-04-05T14:35:05;47.95;;;26.60;;
54561;SDS011;69047;53.358;-1.486;2023-04-05T14:37:30;43.80;;;25.17;;
54561;SDS011;69047;53.358;-1.486;2023-04-05T14:39:56;88.20;;;44.83;;
54561;SDS011;69047;53.358;-1.486;2023-04-05T14:42:22;224.70;;;115.95;;
54561;SDS011;69047;53.358;-1.486;2023-04-05T14:44:47;162.05;;;83.80;;
54561;SDS011;69047;53.358;-1.486;2023-04-05T14:47:13;142.70;;;73.20;;
54561;SDS011;69047;53.358;-1.486;2023-04-05T14:49:38;137.45;;;70.05;;
54561;SDS011;69047;53.358;-1.486;2023-04-05T14:52:04;121.32;;;64.32;;
54561;SDS011;69047;53.358;-1.486;2023-04-05T14:54:29;112.50;;;55.85;;
54561;SDS011;69047;53.358;-1.486;2023-04-05T14:56:55;112.63;;;57.67;;
54561;SDS011;69047;53.358;-1.486;2023-04-05T14:59:21;103.10;;;51.95;;
54561;SDS011;69047;53.358;-1.486;2023-04-05T15:01:46;101.63;;;49.55;;
54561;SDS011;69047;53.358;-1.486;2023-04-05T15:04:12;99.68;;;51.65;;
54561;SDS011;69047;53.358;-1.486;2023-04-05T15:06:37;89.63;;;45.20;;